createdAt,value
2018-04-01T00:00:12.824Z,81.24
2018-04-01T00:01:13.047Z,81.24
2018-04-01T00:02:13.271Z,80.95
2018-04-01T00:03:13.498Z,81.24
2018-04-01T00:04:13.721Z,81.05
2018-04-01T00:05:13.947Z,81.24
2018-04-01T00:06:14.172Z,80.48
2018-04-01T00:07:14.396Z,80.29
2018-04-01T00:08:14.628Z,81.05
2018-04-01T00:09:14.845Z,81.33
2018-04-01T00:10:15.070Z,81.43
2018-04-01T00:11:15.301Z,81.62
2018-04-01T00:12:15.522Z,81.52
2018-04-01T00:13:15.758Z,81.52
2018-04-01T00:14:15.976Z,81.90
2018-04-01T00:15:16.265Z,81.90
2018-04-01T00:16:16.428Z,82.66
2018-04-01T00:17:16.651Z,83.85
2018-04-01T00:18:16.874Z,84.04
2018-04-01T00:19:17.101Z,84.23
2018-04-01T00:20:17.325Z,83.94
2018-04-01T00:21:17.549Z,84.04
2018-04-01T00:22:17.781Z,83.85
2018-04-01T00:23:18.062Z,83.85
2018-04-01T00:24:18.171Z,83.85
2018-04-01T00:25:18.393Z,83.47
2018-04-01T00:26:18.614Z,84.13
2018-04-01T00:27:18.839Z,84.42
2018-04-01T00:28:19.063Z,84.23
2018-04-01T00:29:19.286Z,84.13
2018-04-01T00:30:19.514Z,83.66
2018-04-01T00:31:19.737Z,82.90
2018-04-01T00:32:19.959Z,82.66
2018-04-01T00:33:20.186Z,82.37
2018-04-01T00:34:20.410Z,82.75
2018-04-01T00:35:20.632Z,82.18
2018-04-01T00:36:20.856Z,82.09
2018-04-01T00:37:21.079Z,82.71
2018-04-01T00:38:21.303Z,83.47
2018-04-01T00:39:21.529Z,83.09
2018-04-01T00:40:21.753Z,82.75
2018-04-01T00:41:21.984Z,82.18
2018-04-01T00:42:22.210Z,82.37
2018-04-01T00:43:22.433Z,81.71
2018-04-01T00:44:22.654Z,81.99
2018-04-01T00:45:22.878Z,81.90
2018-04-01T00:46:23.112Z,81.90
2018-04-01T00:47:23.325Z,81.90
2018-04-01T00:48:23.548Z,81.90
2018-04-01T00:49:23.772Z,81.90
2018-04-01T00:50:23.996Z,81.99
2018-04-01T00:51:24.227Z,82.18
2018-04-01T00:52:24.448Z,81.24
2018-04-01T00:53:24.671Z,81.81
2018-04-01T00:54:24.899Z,81.33
2018-04-01T00:55:25.119Z,81.43
2018-04-01T00:56:25.342Z,81.33
2018-04-01T00:57:25.566Z,81.43
2018-04-01T00:58:25.791Z,81.99
2018-04-01T00:59:26.017Z,81.71
2018-04-01T01:00:26.271Z,82.18
2018-04-01T01:01:26.455Z,81.81
2018-04-01T01:02:26.682Z,81.99
2018-04-01T01:03:26.901Z,82.28
2018-04-01T01:04:27.128Z,82.24
2018-04-01T01:05:27.351Z,82.56
2018-04-01T01:06:27.574Z,82.75
2018-04-01T01:07:27.797Z,83.04
2018-04-01T01:08:28.022Z,82.62
2018-04-01T01:09:28.243Z,83.61
2018-04-01T01:10:28.468Z,83.32
2018-04-01T01:11:28.691Z,82.75
2018-04-01T01:12:28.914Z,82.66
2018-04-01T01:13:29.142Z,82.56
2018-04-01T01:14:29.364Z,83.04
2018-04-01T01:15:29.588Z,82.85
2018-04-01T01:16:29.812Z,83.51
2018-04-01T01:17:30.041Z,83.51
2018-04-01T01:18:30.262Z,84.04
2018-04-01T01:19:30.479Z,83.85
2018-04-01T01:20:30.706Z,84.23
2018-04-01T01:21:30.933Z,84.61
2018-04-01T01:22:31.155Z,84.51
2018-04-01T01:23:31.382Z,84.51
2018-04-01T01:24:31.629Z,84.61
2018-04-01T01:25:31.832Z,84.27
2018-04-01T01:26:32.058Z,84.32
2018-04-01T01:27:32.282Z,84.51
2018-04-01T01:28:32.504Z,84.80
2018-04-01T01:29:32.746Z,84.80
2018-04-01T01:30:32.954Z,84.61
2018-04-01T01:31:33.179Z,84.89
2018-04-01T01:32:33.412Z,84.89
2018-04-01T01:33:33.629Z,85.27
2018-04-01T01:34:33.854Z,84.84
2018-04-01T01:35:34.079Z,84.32
2018-04-01T01:36:34.298Z,84.46
2018-04-01T01:37:34.529Z,84.65
2018-04-01T01:38:34.748Z,84.17
2018-04-01T01:39:34.972Z,84.23
2018-04-01T01:40:35.198Z,84.61
2018-04-01T01:41:35.422Z,84.74
2018-04-01T01:42:35.648Z,84.80
2018-04-01T01:43:35.867Z,84.94
2018-04-01T01:44:36.094Z,84.74
2018-04-01T01:45:36.317Z,84.65
2018-04-01T01:46:36.539Z,84.36
2018-04-01T01:47:36.764Z,84.08
2018-04-01T01:48:36.990Z,83.80
2018-04-01T01:49:37.211Z,82.75
2018-04-01T01:50:37.434Z,82.66
2018-04-01T01:51:37.659Z,82.75
2018-04-01T01:52:37.882Z,82.66
2018-04-01T01:53:38.105Z,82.85
2018-04-01T01:54:38.333Z,82.37
2018-04-01T01:55:38.559Z,81.71
2018-04-01T01:56:38.783Z,81.90
2018-04-01T01:57:39.009Z,81.33
2018-04-01T01:58:39.252Z,81.71
2018-04-01T01:59:39.446Z,82.47
2018-04-01T02:00:39.668Z,81.99
2018-04-01T02:01:39.892Z,82.09
2018-04-01T02:02:40.116Z,82.56
2018-04-01T02:03:40.342Z,83.32
2018-04-01T02:04:40.566Z,83.23
2018-04-01T02:05:40.789Z,83.42
2018-04-01T02:06:41.020Z,83.13
2018-04-01T02:07:41.236Z,83.23
2018-04-01T02:08:41.462Z,82.66
2018-04-01T02:09:41.685Z,82.37
2018-04-01T02:10:41.911Z,81.52
2018-04-01T02:11:42.134Z,81.62
2018-04-01T02:12:42.358Z,81.66
2018-04-01T02:13:42.592Z,81.27
2018-04-01T02:14:42.819Z,80.99
2018-04-01T02:15:43.043Z,81.56
2018-04-01T02:16:43.269Z,81.09
2018-04-01T02:17:43.496Z,81.52
2018-04-01T02:18:43.718Z,81.52
2018-04-01T02:19:43.940Z,81.81
2018-04-01T02:20:44.177Z,82.09
2018-04-01T02:21:44.409Z,82.56
2018-04-01T02:22:44.629Z,82.09
2018-04-01T02:23:44.860Z,81.52
2018-04-01T02:24:45.085Z,82.28
2018-04-01T02:25:45.310Z,82.47
2018-04-01T02:26:45.535Z,83.13
2018-04-01T02:27:45.755Z,82.18
2018-04-01T02:28:45.973Z,82.18
2018-04-01T02:29:46.199Z,81.71
2018-04-01T02:30:46.425Z,81.99
2018-04-01T02:31:46.651Z,81.71
2018-04-01T02:32:46.871Z,81.37
2018-04-01T02:33:47.098Z,81.37
2018-04-01T02:34:47.322Z,81.56
2018-04-01T02:35:47.547Z,81.09
2018-04-01T02:36:47.773Z,80.71
2018-04-01T02:37:47.998Z,81.27
2018-04-01T02:38:48.222Z,80.43
2018-04-01T02:39:48.446Z,80.71
2018-04-01T02:40:48.679Z,80.33
2018-04-01T02:41:48.896Z,80.24
2018-04-01T02:42:49.118Z,80.33
2018-04-01T02:43:49.342Z,81.27
2018-04-01T02:44:49.568Z,81.24
2018-04-01T02:45:49.803Z,82.66
2018-04-01T02:46:50.037Z,83.04
2018-04-01T02:47:50.256Z,83.42
2018-04-01T02:48:50.493Z,83.80
2018-04-01T02:49:50.712Z,83.61
2018-04-01T02:50:50.935Z,83.80
2018-04-01T02:51:51.159Z,84.27
2018-04-01T02:52:51.383Z,84.17
2018-04-01T02:53:51.606Z,84.17
2018-04-01T02:54:51.832Z,83.98
2018-04-01T02:55:52.054Z,82.75
2018-04-01T02:56:52.276Z,82.18
2018-04-01T02:57:52.498Z,81.90
2018-04-01T02:58:52.721Z,82.47
2018-04-01T02:59:52.945Z,82.47
2018-04-01T03:00:53.179Z,81.71
2018-04-01T03:01:53.455Z,82.09
2018-04-01T03:02:53.637Z,82.09
2018-04-01T03:03:53.856Z,81.62
2018-04-01T03:04:54.082Z,81.99
2018-04-01T03:05:54.311Z,81.81
2018-04-01T03:06:54.535Z,82.47
2018-04-01T03:07:54.757Z,82.66
2018-04-01T03:08:54.978Z,83.13
2018-04-01T03:09:55.236Z,82.66
2018-04-01T03:10:55.457Z,82.18
2018-04-01T03:11:55.681Z,81.71
2018-04-01T03:12:55.911Z,81.81
2018-04-01T03:13:56.127Z,81.52
2018-04-01T03:14:56.358Z,82.66
2018-04-01T03:15:56.576Z,82.47
2018-04-01T03:16:56.792Z,83.23
2018-04-01T03:17:57.016Z,82.66
2018-04-01T03:18:57.246Z,82.18
2018-04-01T03:19:57.465Z,82.94
2018-04-01T03:20:57.691Z,83.13
2018-04-01T03:21:57.917Z,83.98
2018-04-01T03:22:58.139Z,84.17
2018-04-01T03:23:58.363Z,83.98
2018-04-01T03:24:58.586Z,83.70
2018-04-01T03:25:58.810Z,83.13
2018-04-01T03:26:59.035Z,82.66
2018-04-01T03:27:59.260Z,83.13
2018-04-01T03:28:59.490Z,82.66
2018-04-01T03:29:59.709Z,82.56
2018-04-01T03:30:59.941Z,82.75
2018-04-01T03:32:00.163Z,82.66
2018-04-01T03:33:00.390Z,82.56
2018-04-01T03:34:00.616Z,82.75
2018-04-01T03:35:00.840Z,83.32
2018-04-01T03:36:01.067Z,82.94
2018-04-01T03:37:01.296Z,83.04
2018-04-01T03:38:01.513Z,83.98
2018-04-01T03:39:01.737Z,83.80
2018-04-01T03:40:01.957Z,82.85
2018-04-01T03:41:02.183Z,82.66
2018-04-01T03:42:02.409Z,82.47
2018-04-01T03:43:02.633Z,82.94
2018-04-01T03:44:02.857Z,82.75
2018-04-01T03:45:03.082Z,82.66
2018-04-01T03:46:03.308Z,82.56
2018-04-01T03:47:03.529Z,82.18
2018-04-01T03:48:03.750Z,82.75
2018-04-01T03:49:03.974Z,83.32
2018-04-01T03:50:04.197Z,83.70
2018-04-01T03:51:04.422Z,83.51
2018-04-01T03:52:04.648Z,83.42
2018-04-01T03:53:04.872Z,82.94
2018-04-01T03:54:05.102Z,83.23
2018-04-01T03:55:05.326Z,83.70
2018-04-01T03:56:05.551Z,83.89
2018-04-01T03:57:05.776Z,84.36
2018-04-01T03:58:05.999Z,84.55
2018-04-01T03:59:06.225Z,84.74
2018-04-01T04:00:06.450Z,84.55
2018-04-01T04:01:06.679Z,84.27
2018-04-01T04:02:06.900Z,83.42
2018-04-01T04:03:07.122Z,83.80
2018-04-01T04:04:07.347Z,83.23
2018-04-01T04:05:07.571Z,82.66
2018-04-01T04:06:07.795Z,82.37
2018-04-01T04:07:08.020Z,82.18
2018-04-01T04:08:08.243Z,82.94
2018-04-01T04:09:08.468Z,83.70
2018-04-01T04:10:08.692Z,83.51
2018-04-01T04:11:08.916Z,83.80
2018-04-01T04:12:09.144Z,83.98
2018-04-01T04:13:09.366Z,83.80
2018-04-01T04:14:09.593Z,83.23
2018-04-01T04:15:09.817Z,83.32
2018-04-01T04:16:10.038Z,82.47
2018-04-01T04:17:10.266Z,83.13
2018-04-01T04:18:10.492Z,84.08
2018-04-01T04:19:10.714Z,84.17
2018-04-01T04:20:10.939Z,84.55
2018-04-01T04:21:11.164Z,84.65
2018-04-01T04:22:11.385Z,84.65
2018-04-01T04:23:11.612Z,84.65
2018-04-01T04:24:11.837Z,84.36
2018-04-01T04:25:12.060Z,84.27
2018-04-01T04:26:12.287Z,83.80
2018-04-01T04:27:12.509Z,82.98
2018-04-01T04:28:12.739Z,83.04
2018-04-01T04:29:12.955Z,83.08
2018-04-01T04:30:13.183Z,83.61
2018-04-01T04:31:13.406Z,83.70
2018-04-01T04:32:13.629Z,83.55
2018-04-01T04:33:13.856Z,84.22
2018-04-01T04:34:14.081Z,84.31
2018-04-01T04:35:14.305Z,83.55
2018-04-01T04:36:14.525Z,84.22
2018-04-01T04:37:14.750Z,84.31
2018-04-01T04:38:14.993Z,84.31
2018-04-01T04:39:15.219Z,84.31
2018-04-01T04:40:15.443Z,84.41
2018-04-01T04:41:15.671Z,83.94
2018-04-01T04:42:15.896Z,83.74
2018-04-01T04:43:16.121Z,83.74
2018-04-01T04:44:16.358Z,83.08
2018-04-01T04:45:16.581Z,82.23
2018-04-01T04:46:16.804Z,81.75
2018-04-01T04:47:17.028Z,81.66
2018-04-01T04:48:17.254Z,81.56
2018-04-01T04:49:17.475Z,81.09
2018-04-01T04:50:17.694Z,81.09
2018-04-01T04:51:17.923Z,81.66
2018-04-01T04:52:18.146Z,80.80
2018-04-01T04:53:18.372Z,81.18
2018-04-01T04:54:18.593Z,80.99
2018-04-01T04:55:18.822Z,80.62
2018-04-01T04:56:19.048Z,81.18
2018-04-01T04:57:19.269Z,80.46
2018-04-01T04:58:19.494Z,80.37
2018-04-01T04:59:19.719Z,80.46
2018-04-01T05:00:19.946Z,80.27
2018-04-01T05:01:20.168Z,80.08
2018-04-01T05:02:20.394Z,80.46
2018-04-01T05:03:20.620Z,80.37
2018-04-01T05:04:20.846Z,80.27
2018-04-01T05:05:21.074Z,80.37
2018-04-01T05:06:21.298Z,80.08
2018-04-01T05:07:21.522Z,80.46
2018-04-01T05:08:21.773Z,79.80
2018-04-01T05:09:21.968Z,80.46
2018-04-01T05:10:22.202Z,79.80
2018-04-01T05:11:22.430Z,79.99
2018-04-01T05:12:22.649Z,80.37
2018-04-01T05:13:22.875Z,80.08
2018-04-01T05:14:23.104Z,79.80
2018-04-01T05:15:23.325Z,79.80
2018-04-01T05:16:23.555Z,79.99
2018-04-01T05:17:23.784Z,80.27
2018-04-01T05:18:24.009Z,79.71
2018-04-01T05:19:24.235Z,79.80
2018-04-01T05:20:24.460Z,79.42
2018-04-01T05:21:24.682Z,79.71
2018-04-01T05:22:24.906Z,79.99
2018-04-01T05:23:25.133Z,79.71
2018-04-01T05:24:25.360Z,79.52
2018-04-01T05:25:25.580Z,79.61
2018-04-01T05:26:25.805Z,79.61
2018-04-01T05:27:26.031Z,79.90
2018-04-01T05:28:26.264Z,79.80
2018-04-01T05:29:26.484Z,78.95
2018-04-01T05:30:26.713Z,79.99
2018-04-01T05:31:26.936Z,79.80
2018-04-01T05:32:27.162Z,80.24
2018-04-01T05:33:27.386Z,80.99
2018-04-01T05:34:27.613Z,80.94
2018-04-01T05:35:27.839Z,81.32
2018-04-01T05:36:28.067Z,80.71
2018-04-01T05:37:28.291Z,81.56
2018-04-01T05:38:28.515Z,82.23
2018-04-01T05:39:28.740Z,82.70
2018-04-01T05:40:28.968Z,82.70
2018-04-01T05:41:29.190Z,82.70
2018-04-01T05:42:29.419Z,82.60
2018-04-01T05:43:29.644Z,82.23
2018-04-01T05:44:29.868Z,81.66
2018-04-01T05:45:30.092Z,81.88
2018-04-01T05:46:30.321Z,81.75
2018-04-01T05:47:30.544Z,81.75
2018-04-01T05:48:30.770Z,82.46
2018-04-01T05:49:30.996Z,82.51
2018-04-01T05:50:31.220Z,82.60
2018-04-01T05:51:31.487Z,82.98
2018-04-01T05:52:31.668Z,84.03
2018-04-01T05:53:31.889Z,83.84
2018-04-01T05:54:32.116Z,83.65
2018-04-01T05:55:32.344Z,83.36
2018-04-01T05:56:32.567Z,83.84
2018-04-01T05:57:32.788Z,83.74
2018-04-01T05:58:33.014Z,83.17
2018-04-01T05:59:33.240Z,82.84
2018-04-01T06:00:33.466Z,82.65
2018-04-01T06:01:33.691Z,81.51
2018-04-01T06:02:33.913Z,81.88
2018-04-01T06:03:34.177Z,81.41
2018-04-01T06:04:34.358Z,80.94
2018-04-01T06:05:34.582Z,81.13
2018-04-01T06:06:34.808Z,80.37
2018-04-01T06:07:35.032Z,80.65
2018-04-01T06:08:35.269Z,79.61
2018-04-01T06:09:35.490Z,80.27
2018-04-01T06:10:35.718Z,79.90
2018-04-01T06:11:35.943Z,79.71
2018-04-01T06:12:36.167Z,79.90
2018-04-01T06:13:36.390Z,79.99
2018-04-01T06:14:36.618Z,79.90
2018-04-01T06:15:36.841Z,80.37
2018-04-01T06:16:37.066Z,80.65
2018-04-01T06:17:37.293Z,80.37
2018-04-01T06:18:37.518Z,80.37
2018-04-01T06:19:37.746Z,81.32
2018-04-01T06:20:37.969Z,80.56
2018-04-01T06:21:38.196Z,80.75
2018-04-01T06:22:38.423Z,81.04
2018-04-01T06:23:38.646Z,82.55
2018-04-01T06:24:38.868Z,82.70
2018-04-01T06:25:39.098Z,82.98
2018-04-01T06:26:39.321Z,82.60
2018-04-01T06:27:39.546Z,82.89
2018-04-01T06:28:39.765Z,82.98
2018-04-01T06:29:39.988Z,82.84
2018-04-01T06:30:40.214Z,82.17
2018-04-01T06:31:40.442Z,82.46
2018-04-01T06:32:40.668Z,82.51
2018-04-01T06:33:40.894Z,82.46
2018-04-01T06:34:41.121Z,83.12
2018-04-01T06:35:41.340Z,82.84
2018-04-01T06:36:41.567Z,83.22
2018-04-01T06:37:41.793Z,83.88
2018-04-01T06:38:42.016Z,84.07
2018-04-01T06:39:42.240Z,83.40
2018-04-01T06:40:42.467Z,83.22
2018-04-01T06:41:42.696Z,82.93
2018-04-01T06:42:42.922Z,82.74
2018-04-01T06:43:43.148Z,82.74
2018-04-01T06:44:43.374Z,82.65
2018-04-01T06:45:43.601Z,84.07
2018-04-01T06:46:43.824Z,84.17
2018-04-01T06:47:44.051Z,83.78
2018-04-01T06:48:44.279Z,83.50
2018-04-01T06:49:44.501Z,82.84
2018-04-01T06:50:44.795Z,82.84
2018-04-01T06:51:44.961Z,83.88
2018-04-01T06:52:45.193Z,83.50
2018-04-01T06:53:45.417Z,83.59
2018-04-01T06:54:45.646Z,84.40
2018-04-01T06:55:45.870Z,83.83
2018-04-01T06:56:46.096Z,83.83
2018-04-01T06:57:46.323Z,83.45
2018-04-01T06:58:46.547Z,83.26
2018-04-01T06:59:46.775Z,83.16
2018-04-01T07:00:47.000Z,82.88
2018-04-01T07:01:47.228Z,82.88
2018-04-01T07:02:47.455Z,83.36
2018-04-01T07:03:47.680Z,82.88
2018-04-01T07:04:47.905Z,82.50
2018-04-01T07:05:48.134Z,81.55
2018-04-01T07:06:48.356Z,81.59
2018-04-01T07:07:48.578Z,81.97
2018-04-01T07:08:48.808Z,81.49
2018-04-01T07:09:49.043Z,81.02
2018-04-01T07:10:49.264Z,81.12
2018-04-01T07:11:49.489Z,81.49
2018-04-01T07:12:49.716Z,80.35
2018-04-01T07:13:49.943Z,80.68
2018-04-01T07:14:50.173Z,80.49
2018-04-01T07:15:50.396Z,79.35
2018-04-01T07:16:50.632Z,79.83
2018-04-01T07:17:50.848Z,79.25
2018-04-01T07:18:51.071Z,78.69
2018-04-01T07:19:51.296Z,78.78
2018-04-01T07:20:51.519Z,78.69
2018-04-01T07:21:51.751Z,78.59
2018-04-01T07:22:51.969Z,77.64
2018-04-01T07:23:52.194Z,77.73
2018-04-01T07:24:52.421Z,77.77
2018-04-01T07:25:52.648Z,77.11
2018-04-01T07:26:52.872Z,77.49
2018-04-01T07:27:53.096Z,77.30
2018-04-01T07:28:53.332Z,76.92
2018-04-01T07:29:53.549Z,76.73
2018-04-01T07:30:53.772Z,76.82
2018-04-01T07:31:53.999Z,76.54
2018-04-01T07:32:54.226Z,76.44
2018-04-01T07:33:54.458Z,76.01
2018-04-01T07:34:54.685Z,75.43
2018-04-01T07:35:54.910Z,74.96
2018-04-01T07:36:55.134Z,74.87
2018-04-01T07:37:55.358Z,74.67
2018-04-01T07:38:55.585Z,73.91
2018-04-01T07:39:55.803Z,73.91
2018-04-01T07:40:56.034Z,74.24
2018-04-01T07:41:56.267Z,73.38
2018-04-01T07:42:56.484Z,73.10
2018-04-01T07:43:56.704Z,72.42
2018-04-01T07:44:56.933Z,72.71
2018-04-01T07:45:57.161Z,71.19
2018-04-01T07:46:57.386Z,71.70
2018-04-01T07:47:57.609Z,71.28
2018-04-01T07:48:57.834Z,70.65
2018-04-01T07:49:58.059Z,70.43
2018-04-01T07:50:58.284Z,70.72
2018-04-01T07:51:58.519Z,70.52
2018-04-01T07:52:58.741Z,70.72
2018-04-01T07:53:58.969Z,70.52
2018-04-01T07:54:59.195Z,70.90
2018-04-01T07:55:59.421Z,70.52
2018-04-01T07:56:59.651Z,70.81
2018-04-01T07:57:59.874Z,70.52
2018-04-01T07:59:00.102Z,71.00
2018-04-01T08:00:00.328Z,70.72
2018-04-01T08:01:00.555Z,70.72
2018-04-01T08:02:00.780Z,70.43
2018-04-01T08:03:01.020Z,70.14
2018-04-01T08:04:01.245Z,70.33
2018-04-01T08:05:01.470Z,70.52
2018-04-01T08:06:01.692Z,69.85
2018-04-01T08:07:01.923Z,70.24
2018-04-01T08:08:02.197Z,69.76
2018-04-01T08:09:02.372Z,69.67
2018-04-01T08:10:02.600Z,69.95
2018-04-01T08:11:02.823Z,68.52
2018-04-01T08:12:03.051Z,68.81
2018-04-01T08:13:03.276Z,68.52
2018-04-01T08:14:03.503Z,67.99
2018-04-01T08:15:03.729Z,68.18
2018-04-01T08:16:03.956Z,68.94
2018-04-01T08:17:04.181Z,68.27
2018-04-01T08:18:04.410Z,67.80
2018-04-01T08:19:04.637Z,67.61
2018-04-01T08:20:04.864Z,68.08
2018-04-01T08:21:05.090Z,67.22
2018-04-01T08:22:05.320Z,67.03
2018-04-01T08:23:05.544Z,67.51
2018-04-01T08:24:05.776Z,67.22
2018-04-01T08:25:05.998Z,66.94
2018-04-01T08:26:06.223Z,66.75
2018-04-01T08:27:06.459Z,66.85
2018-04-01T08:28:06.681Z,66.46
2018-04-01T08:29:06.896Z,66.75
2018-04-01T08:30:07.125Z,66.27
2018-04-01T08:31:07.350Z,66.56
2018-04-01T08:32:07.576Z,66.56
2018-04-01T08:33:07.804Z,66.94
2018-04-01T08:34:08.030Z,67.13
2018-04-01T08:35:08.258Z,66.56
2018-04-01T08:36:08.482Z,66.66
2018-04-01T08:37:08.711Z,66.75
2018-04-01T08:38:08.937Z,67.03
2018-04-01T08:39:09.165Z,67.41
2018-04-01T08:40:09.417Z,67.80
2018-04-01T08:41:09.622Z,67.22
2018-04-01T08:42:09.846Z,67.80
2018-04-01T08:43:10.074Z,68.75
2018-04-01T08:44:10.304Z,68.94
2018-04-01T08:45:10.526Z,68.56
2018-04-01T08:46:10.797Z,68.46
2018-04-01T08:47:10.982Z,68.75
2018-04-01T08:48:11.206Z,69.04
2018-04-01T08:49:11.431Z,68.75
2018-04-01T08:50:11.651Z,69.23
2018-04-01T08:51:11.878Z,69.42
2018-04-01T08:52:12.104Z,70.18
2018-04-01T08:53:12.333Z,70.65
2018-04-01T08:54:12.555Z,70.94
2018-04-01T08:55:12.783Z,71.03
2018-04-01T08:56:13.014Z,71.80
2018-04-01T08:57:13.238Z,73.32
2018-04-01T08:58:13.472Z,73.41
2018-04-01T08:59:13.697Z,73.99
2018-04-01T09:00:13.918Z,74.08
2018-04-01T09:01:14.147Z,74.46
2018-04-01T09:02:14.374Z,74.56
2018-04-01T09:03:14.598Z,74.65
2018-04-01T09:04:14.827Z,74.84
2018-04-01T09:05:15.054Z,74.56
2018-04-01T09:06:15.277Z,74.65
2018-04-01T09:07:15.502Z,73.70
2018-04-01T09:08:15.729Z,73.70
2018-04-01T09:09:15.952Z,73.45
2018-04-01T09:10:16.178Z,73.65
2018-04-01T09:11:16.408Z,73.36
2018-04-01T09:12:16.636Z,73.17
2018-04-01T09:13:16.869Z,72.50
2018-04-01T09:14:17.092Z,72.69
2018-04-01T09:15:17.322Z,72.02
2018-04-01T09:16:17.552Z,72.69
2018-04-01T09:17:17.791Z,72.60
2018-04-01T09:18:18.003Z,72.60
2018-04-01T09:19:18.231Z,72.60
2018-04-01T09:20:18.460Z,72.31
2018-04-01T09:21:18.688Z,71.93
2018-04-01T09:22:18.915Z,72.41
2018-04-01T09:23:19.152Z,72.82
2018-04-01T09:24:19.384Z,72.82
2018-04-01T09:25:19.609Z,71.87
2018-04-01T09:26:19.842Z,71.58
2018-04-01T09:27:20.070Z,70.25
2018-04-01T09:28:20.300Z,70.72
2018-04-01T09:29:20.519Z,70.92
2018-04-01T09:30:20.747Z,70.72
2018-04-01T09:31:20.976Z,69.39
2018-04-01T09:32:21.201Z,69.01
2018-04-01T09:33:21.430Z,69.10
2018-04-01T09:34:21.668Z,68.63
2018-04-01T09:35:21.900Z,69.29
2018-04-01T09:36:22.122Z,69.39
2018-04-01T09:37:22.351Z,69.01
2018-04-01T09:38:22.573Z,69.01
2018-04-01T09:39:22.801Z,70.06
2018-04-01T09:40:23.030Z,70.06
2018-04-01T09:41:23.258Z,69.58
2018-04-01T09:42:23.479Z,68.72
2018-04-01T09:43:23.712Z,69.01
2018-04-01T09:44:23.941Z,68.44
2018-04-01T09:45:24.169Z,68.53
2018-04-01T09:46:24.400Z,68.63
2018-04-01T09:47:24.626Z,69.29
2018-04-01T09:48:24.852Z,69.20
2018-04-01T09:49:25.082Z,68.72
2018-04-01T09:50:25.311Z,68.72
2018-04-01T09:51:25.539Z,68.53
2018-04-01T09:52:25.766Z,69.20
2018-04-01T09:53:25.991Z,69.29
2018-04-01T09:54:26.222Z,69.33
2018-04-01T09:55:26.446Z,68.63
2018-04-01T09:56:26.677Z,68.82
2018-04-01T09:57:26.909Z,68.72
2018-04-01T09:58:27.136Z,67.68
2018-04-01T09:59:27.363Z,68.15
2018-04-01T10:00:27.593Z,68.44
2018-04-01T10:01:27.823Z,67.39
2018-04-01T10:02:28.048Z,67.48
2018-04-01T10:03:28.277Z,68.78
2018-04-01T10:04:28.506Z,69.35
2018-04-01T10:05:28.733Z,69.64
2018-04-01T10:06:28.960Z,70.50
2018-04-01T10:07:29.189Z,70.88
2018-04-01T10:08:29.414Z,71.17
2018-04-01T10:09:29.640Z,71.07
2018-04-01T10:10:29.868Z,71.83
2018-04-01T10:11:30.095Z,72.41
2018-04-01T10:12:30.326Z,72.56
2018-04-01T10:13:30.552Z,73.32
2018-04-01T10:14:30.780Z,73.89
2018-04-01T10:15:31.008Z,73.89
2018-04-01T10:16:31.236Z,75.13
2018-04-01T10:17:31.460Z,75.13
2018-04-01T10:18:31.686Z,75.23
2018-04-01T10:19:31.913Z,75.70
2018-04-01T10:20:32.147Z,75.79
2018-04-01T10:21:32.369Z,75.23
2018-04-01T10:22:32.600Z,75.13
2018-04-01T10:23:32.817Z,74.46
2018-04-01T10:24:33.046Z,74.37
2018-04-01T10:25:33.278Z,74.75
2018-04-01T10:26:33.492Z,74.65
2018-04-01T10:27:33.720Z,74.84
2018-04-01T10:28:33.949Z,75.23
2018-04-01T10:29:34.176Z,75.13
2018-04-01T10:30:34.403Z,75.70
2018-04-01T10:31:34.637Z,76.56
2018-04-01T10:32:34.864Z,75.89
2018-04-01T10:33:35.087Z,76.27
2018-04-01T10:34:35.314Z,76.18
2018-04-01T10:35:35.539Z,75.89
2018-04-01T10:36:35.764Z,74.94
2018-04-01T10:37:35.991Z,73.80
2018-04-01T10:38:36.219Z,74.37
2018-04-01T10:39:36.441Z,74.65
2018-04-01T10:40:36.666Z,73.89
2018-04-01T10:41:36.894Z,73.80
2018-04-01T10:42:37.124Z,74.27
2018-04-01T10:43:37.349Z,74.75
2018-04-01T10:44:37.577Z,74.80
2018-04-01T10:45:37.807Z,74.62
2018-04-01T10:46:38.030Z,74.99
2018-04-01T10:47:38.258Z,75.04
2018-04-01T10:48:38.491Z,75.28
2018-04-01T10:49:38.717Z,75.23
2018-04-01T10:50:38.954Z,75.04
2018-04-01T10:51:39.171Z,73.89
2018-04-01T10:52:39.396Z,73.76
2018-04-01T10:53:39.624Z,73.76
2018-04-01T10:54:39.850Z,73.28
2018-04-01T10:55:40.081Z,73.10
2018-04-01T10:56:40.308Z,74.14
2018-04-01T10:57:40.534Z,74.43
2018-04-01T10:58:40.762Z,74.04
2018-04-01T10:59:40.989Z,73.76
2018-04-01T11:00:41.212Z,75.38
2018-04-01T11:01:41.439Z,75.95
2018-04-01T11:02:41.677Z,74.99
2018-04-01T11:03:41.896Z,73.57
2018-04-01T11:04:42.115Z,73.85
2018-04-01T11:05:42.339Z,75.19
2018-04-01T11:06:42.566Z,74.80
2018-04-01T11:07:42.798Z,75.09
2018-04-01T11:08:43.018Z,74.43
2018-04-01T11:09:43.248Z,74.62
2018-04-01T11:10:43.469Z,74.71
2018-04-01T11:11:43.703Z,75.04
2018-04-01T11:12:43.927Z,75.13
2018-04-01T11:13:44.148Z,74.75
2018-04-01T11:14:44.379Z,74.18
2018-04-01T11:15:44.601Z,74.65
2018-04-01T11:16:44.830Z,73.61
2018-04-01T11:17:45.052Z,73.32
2018-04-01T11:18:45.281Z,73.22
2018-04-01T11:19:45.511Z,73.22
2018-04-01T11:20:45.735Z,74.08
2018-04-01T11:21:45.962Z,73.51
2018-04-01T11:22:46.198Z,73.80
2018-04-01T11:23:46.417Z,74.18
2018-04-01T11:24:46.646Z,74.46
2018-04-01T11:25:46.872Z,74.75
2018-04-01T11:26:47.156Z,75.45
2018-04-01T11:27:47.373Z,72.27
2018-04-01T11:28:47.597Z,73.13
2018-04-01T11:29:47.826Z,74.02
2018-04-01T11:30:48.053Z,74.12
2018-04-01T11:31:48.276Z,73.99
2018-04-01T11:32:48.498Z,72.75
2018-04-01T11:33:48.736Z,72.94
2018-04-01T11:34:48.954Z,73.80
2018-04-01T11:35:49.185Z,76.65
2018-04-01T11:36:49.416Z,75.89
2018-04-01T11:37:49.635Z,76.08
2018-04-01T11:38:49.866Z,75.79
2018-04-01T11:39:50.095Z,75.99
2018-04-01T11:40:50.324Z,76.08
2018-04-01T11:41:50.560Z,75.60
2018-04-01T11:42:50.794Z,76.08
2018-04-01T11:43:51.024Z,74.08
2018-04-01T11:44:51.249Z,74.65
2018-04-01T11:45:52.109Z,75.19
2018-04-01T11:46:51.723Z,76.04
2018-04-01T11:47:51.952Z,76.61
2018-04-01T11:48:52.175Z,77.43
2018-04-01T11:49:52.400Z,77.81
2018-04-01T11:50:52.635Z,77.34
2018-04-01T11:51:52.865Z,79.14
2018-04-01T11:52:53.085Z,80.57
2018-04-01T11:53:53.304Z,79.52
2018-04-01T11:54:53.537Z,79.05
2018-04-01T11:55:53.762Z,78.86
2018-04-01T11:56:54.029Z,78.19
2018-04-01T11:57:54.213Z,77.34
2018-04-01T11:58:54.436Z,77.34
2018-04-01T11:59:54.662Z,78.29
2018-04-01T12:00:54.891Z,79.05
2018-04-01T12:01:55.116Z,78.38
2018-04-01T12:02:55.409Z,78.71
2018-04-01T12:03:55.586Z,78.80
2018-04-01T12:04:55.800Z,78.04
2018-04-01T12:05:56.025Z,77.85
2018-04-01T12:06:56.245Z,77.37
2018-04-01T12:07:56.475Z,77.98
2018-04-01T12:08:56.724Z,76.37
2018-04-01T12:09:56.927Z,74.84
2018-04-01T12:10:57.158Z,72.56
2018-04-01T12:11:57.382Z,72.21
2018-04-01T12:12:57.613Z,73.45
2018-04-01T12:13:57.847Z,76.21
2018-04-01T12:14:58.065Z,74.60
2018-04-01T12:15:58.293Z,73.36
2018-04-01T12:16:58.522Z,73.36
2018-04-01T12:17:58.748Z,73.26
2018-04-01T12:18:58.982Z,71.55
2018-04-01T12:19:59.210Z,72.21
2018-04-01T12:20:59.444Z,73.93
2018-04-01T12:21:59.677Z,74.50
2018-04-01T12:22:59.905Z,74.88
2018-04-01T12:24:00.135Z,75.07
2018-04-01T12:25:00.373Z,73.83
2018-04-01T12:26:00.599Z,72.75
2018-04-01T12:27:00.838Z,73.32
2018-04-01T12:28:01.070Z,74.08
2018-04-01T12:29:01.305Z,75.07
2018-04-01T12:30:01.534Z,74.98
2018-04-01T12:31:01.763Z,73.17
2018-04-01T12:32:01.998Z,71.55
2018-04-01T12:33:02.228Z,71.83
2018-04-01T12:34:02.456Z,72.12
2018-04-01T12:35:02.698Z,72.69
2018-04-01T12:36:02.934Z,73.36
2018-04-01T12:37:03.181Z,71.45
2018-04-01T12:38:03.395Z,70.88
2018-04-01T12:39:03.628Z,71.36
2018-04-01T12:40:03.857Z,70.69
2018-04-01T12:41:04.098Z,72.02
2018-04-01T12:42:04.312Z,71.55
2018-04-01T12:43:04.538Z,71.55
2018-04-01T12:44:04.765Z,71.51
2018-04-01T12:45:04.997Z,71.32
2018-04-01T12:46:05.222Z,73.22
2018-04-01T12:47:05.451Z,74.75
2018-04-01T12:48:05.691Z,72.75
2018-04-01T12:49:05.911Z,72.17
2018-04-01T12:50:06.143Z,71.22
2018-04-01T12:51:06.370Z,72.27
2018-04-01T12:52:06.608Z,71.42
2018-04-01T12:53:06.825Z,72.75
2018-04-01T12:54:07.053Z,72.17
2018-04-01T12:55:07.272Z,72.08